sensor_id;sensor_type;location;lat;lon;timestamp;temperature;humidity
2389;DHT22;1205;47.984;7.668;2023-04-02T00:07:59;9.40;99.90
2389;DHT22;1205;47.984;7.668;2023-04-02T00:15:42;9.50;99.90
2389;DHT22;1205;47.984;7.668;2023-04-02T00:18:14;9.40;99.90
2389;DHT22;1205;47.984;7.668;2023-04-02T00:20:43;9.40;99.90
2389;DHT22;1205;47.984;7.668;2023-04-02T00:23:12;9.50;99.90
2389;DHT22;1205;47.984;7.668;2023-04-02T00:25:39;9.40;99.90
2389;DHT22;1205;47.984;7.668;2023-04-02T00:28:21;9.40;99.90
2389;DHT22;1205;47.984;7.668;2023-04-02T00:30:54;9.40;99.90
2389;DHT22;1205;47.984;7.668;2023-04-02T00:33:22;9.40;99.90
2389;DHT22;1205;47.984;7.668;2023-04-02T00:35:49;9.30;99.90
2389;DHT22;1205;47.984;7.668;2023-04-02T00:40:50;9.40;99.90
2389;DHT22;1205;47.984;7.668;2023-04-02T00:43:17;9.30;99.90
2389;DHT22;1205;47.984;7.668;2023-04-02T00:45:44;9.30;99.90
2389;DHT22;1205;47.984;7.668;2023-04-02T00:51:07;9.20;99.90
2389;DHT22;1205;47.984;7.668;2023-04-02T00:53:36;9.20;99.90
2389;DHT22;1205;47.984;7.668;2023-04-02T00:56:02;9.10;99.90
2389;DHT22;1205;47.984;7.668;2023-04-02T00:58:35;9.00;99.90
2389;DHT22;1205;47.984;7.668;2023-04-02T01:01:02;8.90;99.90
2389;DHT22;1205;47.984;7.668;2023-04-02T01:03:34;9.00;99.90
2389;DHT22;1205;47.984;7.668;2023-04-02T01:06:12;8.90;99.90
2389;DHT22;1205;47.984;7.668;2023-04-02T01:08:47;8.90;99.90
2389;DHT22;1205;47.984;7.668;2023-04-02T01:17:11;8.80;99.90
2389;DHT22;1205;47.984;7.668;2023-04-02T01:20:23;8.90;99.90
2389;DHT22;1205;47.984;7.668;2023-04-02T01:25:50;8.90;99.90
2389;DHT22;1205;47.984;7.668;2023-04-02T01:28:24;9.00;99.90
2389;DHT22;1205;47.984;7.668;2023-04-02T01:30:55;9.00;99.90
2389;DHT22;1205;47.984;7.668;2023-04-02T01:33:24;9.00;99.90
2389;DHT22;1205;47.984;7.668;2023-04-02T01:35:58;9.10;99.90
2389;DHT22;1205;47.984;7.668;2023-04-02T01:38:33;9.00;99.90
2389;DHT22;1205;47.984;7.668;2023-04-02T01:41:10;9.00;99.90
2389;DHT22;1205;47.984;7.668;2023-04-02T01:43:52;9.00;99.90
2389;DHT22;1205;47.984;7.668;2023-04-02T01:46:37;9.10;99.90
2389;DHT22;1205;47.984;7.668;2023-04-02T01:49:18;9.10;99.90
2389;DHT22;1205;47.984;7.668;2023-04-02T01:51:46;9.10;99.90
2389;DHT22;1205;47.984;7.668;2023-04-02T01:54:16;9.10;99.90
2389;DHT22;1205;47.984;7.668;2023-04-02T01:56:43;9.10;99.90
2389;DHT22;1205;47.984;7.668;2023-04-02T01:59:10;9.20;99.90
2389;DHT22;1205;47.984;7.668;2023-04-02T02:01:50;9.20;99.90
2389;DHT22;1205;47.984;7.668;2023-04-02T02:04:17;9.20;99.90
2389;DHT22;1205;47.984;7.668;2023-04-02T02:06:44;9.30;99.90
2389;DHT22;1205;47.984;7.668;2023-04-02T02:09:32;9.30;99.90
2389;DHT22;1205;47.984;7.668;2023-04-02T02:11:59;9.20;99.90
2389;DHT22;1205;47.984;7.668;2023-04-02T02:14:28;9.30;99.90
2389;DHT22;1205;47.984;7.668;2023-04-02T02:16:56;9.30;99.90
2389;DHT22;1205;47.984;7.668;2023-04-02T02:24:32;9.20;99.90
2389;DHT22;1205;47.984;7.668;2023-04-02T02:29:54;9.30;99.90
2389;DHT22;1205;47.984;7.668;2023-04-02T02:32:24;9.30;99.90
2389;DHT22;1205;47.984;7.668;2023-04-02T02:35:10;9.30;99.90
2389;DHT22;1205;47.984;7.668;2023-04-02T02:37:41;9.30;99.90
2389;DHT22;1205;47.984;7.668;2023-04-02T02:40:30;9.30;99.90
2389;DHT22;1205;47.984;7.668;2023-04-02T02:43:01;9.40;99.90
2389;DHT22;1205;47.984;7.668;2023-04-02T02:45:31;9.40;99.90
2389;DHT22;1205;47.984;7.668;2023-04-02T02:48:00;9.30;99.90
2389;DHT22;1205;47.984;7.668;2023-04-02T02:50:28;9.30;99.90
2389;DHT22;1205;47.984;7.668;2023-04-02T02:52:58;9.40;99.90
2389;DHT22;1205;47.984;7.668;2023-04-02T02:55:32;9.30;99.90
2389;DHT22;1205;47.984;7.668;2023-04-02T02:58:20;9.30;99.90
2389;DHT22;1205;47.984;7.668;2023-04-02T03:00:48;9.30;99.90
2389;DHT22;1205;47.984;7.668;2023-04-02T03:03:18;9.30;99.90
2389;DHT22;1205;47.984;7.668;2023-04-02T03:05:51;9.30;99.90
2389;DHT22;1205;47.984;7.668;2023-04-02T03:08:31;9.30;99.90
2389;DHT22;1205;47.984;7.668;2023-04-02T03:11:02;9.20;99.90
2389;DHT22;1205;47.984;7.668;2023-04-02T03:13:32;9.20;99.90
2389;DHT22;1205;47.984;7.668;2023-04-02T03:16:15;9.20;99.90
2389;DHT22;1205;47.984;7.668;2023-04-02T03:18:58;9.30;99.90
2389;DHT22;1205;47.984;7.668;2023-04-02T03:21:27;9.20;99.90
2389;DHT22;1205;47.984;7.668;2023-04-02T03:24:29;9.30;99.90
2389;DHT22;1205;47.984;7.668;2023-04-02T03:29:42;9.30;99.90
2389;DHT22;1205;47.984;7.668;2023-04-02T03:32:31;9.20;99.90
2389;DHT22;1205;47.984;7.668;2023-04-02T03:35:23;9.20;99.90
2389;DHT22;1205;47.984;7.668;2023-04-02T03:37:59;9.30;99.90
2389;DHT22;1205;47.984;7.668;2023-04-02T03:40:40;9.30;99.90
2389;DHT22;1205;47.984;7.668;2023-04-02T03:43:27;9.30;99.90
2389;DHT22;1205;47.984;7.668;2023-04-02T03:46:23;9.20;99.90
2389;DHT22;1205;47.984;7.668;2023-04-02T03:48:56;9.30;99.90
2389;DHT22;1205;47.984;7.668;2023-04-02T03:51:29;9.30;99.90
2389;DHT22;1205;47.984;7.668;2023-04-02T03:53:56;9.30;99.90
2389;DHT22;1205;47.984;7.668;2023-04-02T03:56:27;9.30;99.90
2389;DHT22;1205;47.984;7.668;2023-04-02T03:59:04;9.30;99.90
2389;DHT22;1205;47.984;7.668;2023-04-02T04:01:46;9.30;99.90
2389;DHT22;1205;47.984;7.668;2023-04-02T04:04:17;9.20;99.90
2389;DHT22;1205;47.984;7.668;2023-04-02T04:06:46;9.20;99.90
2389;DHT22;1205;47.984;7.668;2023-04-02T04:09:31;9.20;99.90
2389;DHT22;1205;47.984;7.668;2023-04-02T04:12:30;9.20;99.90
2389;DHT22;1205;47.984;7.668;2023-04-02T04:15:11;9.20;99.90
2389;DHT22;1205;47.984;7.668;2023-04-02T04:23:26;9.20;99.90
2389;DHT22;1205;47.984;7.668;2023-04-02T04:26:04;9.10;99.90
2389;DHT22;1205;47.984;7.668;2023-04-02T04:31:43;9.20;99.90
2389;DHT22;1205;47.984;7.668;2023-04-02T04:34:14;9.20;99.90
2389;DHT22;1205;47.984;7.668;2023-04-02T04:36:46;9.20;99.90
2389;DHT22;1205;47.984;7.668;2023-04-02T04:39:25;9.10;99.90
2389;DHT22;1205;47.984;7.668;2023-04-02T04:41:55;9.20;99.90
2389;DHT22;1205;47.984;7.668;2023-04-02T04:44:25;9.20;99.90
2389;DHT22;1205;47.984;7.668;2023-04-02T04:49:49;9.20;99.90
2389;DHT22;1205;47.984;7.668;2023-04-02T04:52:25;9.20;99.90
2389;DHT22;1205;47.984;7.668;2023-04-02T04:54:53;9.20;99.90
2389;DHT22;1205;47.984;7.668;2023-04-02T04:57:39;9.20;99.90
2389;DHT22;1205;47.984;7.668;2023-04-02T05:00:10;9.20;99.90
2389;DHT22;1205;47.984;7.668;2023-04-02T05:05:35;9.10;99.90
2389;DHT22;1205;47.984;7.668;2023-04-02T05:08:21;9.10;99.90
2389;DHT22;1205;47.984;7.668;2023-04-02T05:10:55;9.20;99.90
2389;DHT22;1205;47.984;7.668;2023-04-02T05:13:28;9.20;99.90
2389;DHT22;1205;47.984;7.668;2023-04-02T05:26:40;9.10;99.90
2389;DHT22;1205;47.984;7.668;2023-04-02T05:29:19;9.10;99.90
2389;DHT22;1205;47.984;7.668;2023-04-02T05:31:57;9.10;99.90
2389;DHT22;1205;47.984;7.668;2023-04-02T05:34:28;9.10;99.90
2389;DHT22;1205;47.984;7.668;2023-04-02T05:36:54;9.10;99.90
2389;DHT22;1205;47.984;7.668;2023-04-02T05:39:24;9.10;99.90
2389;DHT22;1205;47.984;7.668;2023-04-02T05:42:02;9.20;99.90
2389;DHT22;1205;47.984;7.668;2023-04-02T05:44:30;9.10;99.90
2389;DHT22;1205;47.984;7.668;2023-04-02T05:47:17;9.10;99.90
2389;DHT22;1205;47.984;7.668;2023-04-02T05:49:54;9.20;99.90
2389;DHT22;1205;47.984;7.668;2023-04-02T05:52:28;9.10;99.90
2389;DHT22;1205;47.984;7.668;2023-04-02T05:57:49;9.20;99.90
2389;DHT22;1205;47.984;7.668;2023-04-02T06:03:11;9.20;99.90
2389;DHT22;1205;47.984;7.668;2023-04-02T06:05:41;9.20;99.90
2389;DHT22;1205;47.984;7.668;2023-04-02T06:08:16;9.20;99.90
2389;DHT22;1205;47.984;7.668;2023-04-02T06:10:50;9.30;99.90
2389;DHT22;1205;47.984;7.668;2023-04-02T06:13:19;9.30;99.90
2389;DHT22;1205;47.984;7.668;2023-04-02T06:15:45;9.30;99.90
2389;DHT22;1205;47.984;7.668;2023-04-02T06:18:26;9.30;99.90
2389;DHT22;1205;47.984;7.668;2023-04-02T06:20:53;9.40;99.90
2389;DHT22;1205;47.984;7.668;2023-04-02T06:23:25;9.40;99.90
2389;DHT22;1205;47.984;7.668;2023-04-02T06:26:06;9.50;99.90
2389;DHT22;1205;47.984;7.668;2023-04-02T06:28:46;9.50;99.90
2389;DHT22;1205;47.984;7.668;2023-04-02T06:34:02;9.70;99.90
2389;DHT22;1205;47.984;7.668;2023-04-02T06:36:29;9.80;99.90
2389;DHT22;1205;47.984;7.668;2023-04-02T06:39:02;9.90;99.90
2389;DHT22;1205;47.984;7.668;2023-04-02T06:41:28;10.10;99.90
2389;DHT22;1205;47.984;7.668;2023-04-02T06:43:58;10.20;99.90
2389;DHT22;1205;47.984;7.668;2023-04-02T06:46:30;10.30;99.90
2389;DHT22;1205;47.984;7.668;2023-04-02T06:49:47;10.40;99.90
2389;DHT22;1205;47.984;7.668;2023-04-02T06:51:47;10.40;99.90
2389;DHT22;1205;47.984;7.668;2023-04-02T06:54:15;10.50;99.90
2389;DHT22;1205;47.984;7.668;2023-04-02T06:56:49;10.50;99.90
2389;DHT22;1205;47.984;7.668;2023-04-02T06:59:16;10.60;99.90
2389;DHT22;1205;47.984;7.668;2023-04-02T07:01:57;10.70;99.90
2389;DHT22;1205;47.984;7.668;2023-04-02T07:04:25;10.60;99.90
2389;DHT22;1205;47.984;7.668;2023-04-02T07:06:51;10.50;99.90
2389;DHT22;1205;47.984;7.668;2023-04-02T07:09:18;10.70;99.90
2389;DHT22;1205;47.984;7.668;2023-04-02T07:11:43;10.80;99.90
2389;DHT22;1205;47.984;7.668;2023-04-02T07:14:11;10.80;99.90
2389;DHT22;1205;47.984;7.668;2023-04-02T07:16:37;10.70;99.90
2389;DHT22;1205;47.984;7.668;2023-04-02T07:19:04;10.80;99.90
2389;DHT22;1205;47.984;7.668;2023-04-02T07:21:30;11.00;99.90
2389;DHT22;1205;47.984;7.668;2023-04-02T07:23:56;11.00;99.90
2389;DHT22;1205;47.984;7.668;2023-04-02T07:26:24;11.20;99.90
2389;DHT22;1205;47.984;7.668;2023-04-02T07:28:55;11.30;99.90
2389;DHT22;1205;47.984;7.668;2023-04-02T07:31:25;11.40;99.90
2389;DHT22;1205;47.984;7.668;2023-04-02T07:33:57;11.40;99.90
2389;DHT22;1205;47.984;7.668;2023-04-02T07:36:24;11.40;99.90
2389;DHT22;1205;47.984;7.668;2023-04-02T07:38:50;11.50;99.90
2389;DHT22;1205;47.984;7.668;2023-04-02T07:41:16;11.50;99.90
2389;DHT22;1205;47.984;7.668;2023-04-02T07:43:43;11.40;99.90
2389;DHT22;1205;47.984;7.668;2023-04-02T07:46:10;11.40;99.90
2389;DHT22;1205;47.984;7.668;2023-04-02T07:48:36;11.50;99.90
2389;DHT22;1205;47.984;7.668;2023-04-02T07:51:01;11.50;99.90
2389;DHT22;1205;47.984;7.668;2023-04-02T07:53:33;11.60;99.90
2389;DHT22;1205;47.984;7.668;2023-04-02T07:56:01;11.60;99.90
2389;DHT22;1205;47.984;7.668;2023-04-02T07:58:31;11.70;99.90
2389;DHT22;1205;47.984;7.668;2023-04-02T08:00:58;11.70;99.90
2389;DHT22;1205;47.984;7.668;2023-04-02T08:03:24;11.70;99.90
2389;DHT22;1205;47.984;7.668;2023-04-02T08:05:52;11.80;99.90
2389;DHT22;1205;47.984;7.668;2023-04-02T08:08:18;11.80;99.90
2389;DHT22;1205;47.984;7.668;2023-04-02T08:10:44;11.80;99.90
2389;DHT22;1205;47.984;7.668;2023-04-02T08:13:10;11.90;99.90
2389;DHT22;1205;47.984;7.668;2023-04-02T08:15:36;12.00;99.90
2389;DHT22;1205;47.984;7.668;2023-04-02T08:18:01;12.00;99.90
2389;DHT22;1205;47.984;7.668;2023-04-02T08:20:27;12.10;99.90
2389;DHT22;1205;47.984;7.668;2023-04-02T08:22:53;12.10;99.90
2389;DHT22;1205;47.984;7.668;2023-04-02T08:25:18;12.00;99.90
2389;DHT22;1205;47.984;7.668;2023-04-02T08:27:47;12.10;99.90
2389;DHT22;1205;47.984;7.668;2023-04-02T08:30:15;12.20;99.90
2389;DHT22;1205;47.984;7.668;2023-04-02T08:32:41;12.20;99.90
2389;DHT22;1205;47.984;7.668;2023-04-02T08:35:09;12.00;99.90
2389;DHT22;1205;47.984;7.668;2023-04-02T08:37:35;12.20;99.90
2389;DHT22;1205;47.984;7.668;2023-04-02T08:40:01;11.80;99.90
2389;DHT22;1205;47.984;7.668;2023-04-02T08:42:42;12.10;99.90
2389;DHT22;1205;47.984;7.668;2023-04-02T08:45:26;12.30;99.90
2389;DHT22;1205;47.984;7.668;2023-04-02T08:47:55;12.50;99.90
2389;DHT22;1205;47.984;7.668;2023-04-02T08:50:36;13.30;99.90
2389;DHT22;1205;47.984;7.668;2023-04-02T08:53:07;13.50;99.90
2389;DHT22;1205;47.984;7.668;2023-04-02T08:55:44;13.80;99.90
2389;DHT22;1205;47.984;7.668;2023-04-02T09:00:54;14.70;99.90
2389;DHT22;1205;47.984;7.668;2023-04-02T09:03:41;15.00;99.90
2389;DHT22;1205;47.984;7.668;2023-04-02T09:06:12;15.20;99.90
2389;DHT22;1205;47.984;7.668;2023-04-02T09:08:42;15.30;99.90
2389;DHT22;1205;47.984;7.668;2023-04-02T09:13:45;14.70;99.90
2389;DHT22;1205;47.984;7.668;2023-04-02T09:16:14;14.60;99.90
2389;DHT22;1205;47.984;7.668;2023-04-02T09:18:41;14.50;99.90
2389;DHT22;1205;47.984;7.668;2023-04-02T09:21:29;14.40;99.90
2389;DHT22;1205;47.984;7.668;2023-04-02T09:23:56;14.30;99.90
2389;DHT22;1205;47.984;7.668;2023-04-02T09:26:23;14.30;99.90
2389;DHT22;1205;47.984;7.668;2023-04-02T09:28:58;14.10;99.90
2389;DHT22;1205;47.984;7.668;2023-04-02T09:31:30;14.20;99.90
2389;DHT22;1205;47.984;7.668;2023-04-02T09:33:58;14.30;99.90
2389;DHT22;1205;47.984;7.668;2023-04-02T09:36:31;14.50;99.90
2389;DHT22;1205;47.984;7.668;2023-04-02T09:39:03;14.60;99.90
2389;DHT22;1205;47.984;7.668;2023-04-02T09:41:33;14.40;99.90
2389;DHT22;1205;47.984;7.668;2023-04-02T09:44:21;14.30;99.90
2389;DHT22;1205;47.984;7.668;2023-04-02T09:46:52;14.10;99.90
2389;DHT22;1205;47.984;7.668;2023-04-02T09:49:22;13.80;99.90
2389;DHT22;1205;47.984;7.668;2023-04-02T09:52:13;13.70;99.90
2389;DHT22;1205;47.984;7.668;2023-04-02T09:54:40;13.60;99.90
2389;DHT22;1205;47.984;7.668;2023-04-02T09:57:21;13.70;99.90
2389;DHT22;1205;47.984;7.668;2023-04-02T10:00:17;13.70;99.90
2389;DHT22;1205;47.984;7.668;2023-04-02T10:02:45;13.90;99.90
2389;DHT22;1205;47.984;7.668;2023-04-02T10:05:18;14.30;99.90
2389;DHT22;1205;47.984;7.668;2023-04-02T10:07:50;14.40;99.90
2389;DHT22;1205;47.984;7.668;2023-04-02T10:12:45;14.50;99.90
2389;DHT22;1205;47.984;7.668;2023-04-02T10:15:20;14.50;99.90
2389;DHT22;1205;47.984;7.668;2023-04-02T10:17:55;14.50;99.90
2389;DHT22;1205;47.984;7.668;2023-04-02T10:20:25;14.40;99.90
2389;DHT22;1205;47.984;7.668;2023-04-02T10:22:52;14.50;99.90
2389;DHT22;1205;47.984;7.668;2023-04-02T10:25:20;14.40;99.90
2389;DHT22;1205;47.984;7.668;2023-04-02T10:28:12;14.30;99.90
2389;DHT22;1205;47.984;7.668;2023-04-02T10:30:57;14.20;99.90
2389;DHT22;1205;47.984;7.668;2023-04-02T10:33:29;14.20;99.90
2389;DHT22;1205;47.984;7.668;2023-04-02T10:46:43;14.10;99.90
2389;DHT22;1205;47.984;7.668;2023-04-02T10:49:41;14.30;99.90
2389;DHT22;1205;47.984;7.668;2023-04-02T10:54:46;14.80;99.90
2389;DHT22;1205;47.984;7.668;2023-04-02T10:57:28;14.80;99.90
2389;DHT22;1205;47.984;7.668;2023-04-02T11:03:11;15.30;99.90
2389;DHT22;1205;47.984;7.668;2023-04-02T11:05:43;15.20;99.90
2389;DHT22;1205;47.984;7.668;2023-04-02T11:10:49;15.20;99.90
2389;DHT22;1205;47.984;7.668;2023-04-02T11:13:27;15.00;99.90
2389;DHT22;1205;47.984;7.668;2023-04-02T11:15:55;14.90;99.90
2389;DHT22;1205;47.984;7.668;2023-04-02T11:18:31;14.80;99.90
2389;DHT22;1205;47.984;7.668;2023-04-02T11:24:01;15.00;99.90
2389;DHT22;1205;47.984;7.668;2023-04-02T11:29:05;14.60;99.90
2389;DHT22;1205;47.984;7.668;2023-04-02T11:31:32;14.70;99.90
2389;DHT22;1205;47.984;7.668;2023-04-02T11:33:58;14.80;99.90
2389;DHT22;1205;47.984;7.668;2023-04-02T11:39:53;13.80;99.90
2389;DHT22;1205;47.984;7.668;2023-04-02T11:42:26;14.10;99.90
2389;DHT22;1205;47.984;7.668;2023-04-02T11:44:53;14.30;99.90
2389;DHT22;1205;47.984;7.668;2023-04-02T11:47:23;14.40;99.90
2389;DHT22;1205;47.984;7.668;2023-04-02T11:52:31;14.80;99.90
2389;DHT22;1205;47.984;7.668;2023-04-02T11:54:59;14.80;99.90
2389;DHT22;1205;47.984;7.668;2023-04-02T11:57:42;15.00;99.90
2389;DHT22;1205;47.984;7.668;2023-04-02T12:11:13;15.20;99.90
2389;DHT22;1205;47.984;7.668;2023-04-02T12:16:06;15.70;99.60
2389;DHT22;1205;47.984;7.668;2023-04-02T12:18:33;16.00;99.70
2389;DHT22;1205;47.984;7.668;2023-04-02T12:21:00;16.10;99.20
2389;DHT22;1205;47.984;7.668;2023-04-02T12:23:28;16.40;99.30
2389;DHT22;1205;47.984;7.668;2023-04-02T12:25:59;16.50;98.60
2389;DHT22;1205;47.984;7.668;2023-04-02T12:28:27;16.30;97.80
2389;DHT22;1205;47.984;7.668;2023-04-02T12:33:32;16.20;97.30
2389;DHT22;1205;47.984;7.668;2023-04-02T12:38:50;16.00;98.40
2389;DHT22;1205;47.984;7.668;2023-04-02T12:41:30;16.10;97.50
2389;DHT22;1205;47.984;7.668;2023-04-02T12:43:58;16.00;97.30
2389;DHT22;1205;47.984;7.668;2023-04-02T12:46:24;16.10;98.00
2389;DHT22;1205;47.984;7.668;2023-04-02T12:48:52;15.90;97.70
2389;DHT22;1205;47.984;7.668;2023-04-02T12:51:18;15.80;97.10
2389;DHT22;1205;47.984;7.668;2023-04-02T12:53:49;15.90;97.70
2389;DHT22;1205;47.984;7.668;2023-04-02T12:56:20;16.00;97.60
2389;DHT22;1205;47.984;7.668;2023-04-02T12:58:57;15.70;98.90
2389;DHT22;1205;47.984;7.668;2023-04-02T13:01:25;15.30;99.40
2389;DHT22;1205;47.984;7.668;2023-04-02T13:04:09;15.10;99.40
2389;DHT22;1205;47.984;7.668;2023-04-02T13:06:38;14.90;99.90
2389;DHT22;1205;47.984;7.668;2023-04-02T13:09:06;14.80;99.90
2389;DHT22;1205;47.984;7.668;2023-04-02T13:11:49;14.60;99.90
2389;DHT22;1205;47.984;7.668;2023-04-02T13:14:19;14.40;99.90
2389;DHT22;1205;47.984;7.668;2023-04-02T13:16:45;14.40;99.90
2389;DHT22;1205;47.984;7.668;2023-04-02T13:19:41;14.40;99.90
2389;DHT22;1205;47.984;7.668;2023-04-02T13:22:28;14.50;99.90
2389;DHT22;1205;47.984;7.668;2023-04-02T13:24:55;14.60;99.90
2389;DHT22;1205;47.984;7.668;2023-04-02T13:27:20;14.70;99.90
2389;DHT22;1205;47.984;7.668;2023-04-02T13:29:46;14.70;99.90
2389;DHT22;1205;47.984;7.668;2023-04-02T13:32:12;14.70;99.90
2389;DHT22;1205;47.984;7.668;2023-04-02T13:34:38;14.70;99.90
2389;DHT22;1205;47.984;7.668;2023-04-02T13:37:03;14.80;99.90
2389;DHT22;1205;47.984;7.668;2023-04-02T13:39:29;14.70;99.90
2389;DHT22;1205;47.984;7.668;2023-04-02T13:41:56;14.70;99.90
2389;DHT22;1205;47.984;7.668;2023-04-02T13:44:23;14.80;99.90
2389;DHT22;1205;47.984;7.668;2023-04-02T13:46:50;15.10;99.90
2389;DHT22;1205;47.984;7.668;2023-04-02T13:49:16;15.20;99.30
2389;DHT22;1205;47.984;7.668;2023-04-02T13:51:50;15.20;99.60
2389;DHT22;1205;47.984;7.668;2023-04-02T13:56:45;15.40;99.40
2389;DHT22;1205;47.984;7.668;2023-04-02T13:59:11;15.20;99.70
2389;DHT22;1205;47.984;7.668;2023-04-02T14:01:37;15.10;99.50
2389;DHT22;1205;47.984;7.668;2023-04-02T14:04:04;15.20;99.70
2389;DHT22;1205;47.984;7.668;2023-04-02T14:06:40;15.20;99.90
2389;DHT22;1205;47.984;7.668;2023-04-02T14:16:58;15.60;98.90
2389;DHT22;1205;47.984;7.668;2023-04-02T14:25:02;15.70;97.80
2389;DHT22;1205;47.984;7.668;2023-04-02T14:30:22;15.80;98.40
2389;DHT22;1205;47.984;7.668;2023-04-02T14:32:55;15.70;98.40
2389;DHT22;1205;47.984;7.668;2023-04-02T14:35:34;15.70;97.60
2389;DHT22;1205;47.984;7.668;2023-04-02T14:40:43;15.60;98.20
2389;DHT22;1205;47.984;7.668;2023-04-02T14:43:25;15.40;98.10
2389;DHT22;1205;47.984;7.668;2023-04-02T14:46:04;15.20;98.30
2389;DHT22;1205;47.984;7.668;2023-04-02T14:51:22;15.30;98.50
2389;DHT22;1205;47.984;7.668;2023-04-02T14:56:37;15.10;99.50
2389;DHT22;1205;47.984;7.668;2023-04-02T14:59:26;14.80;99.90
2389;DHT22;1205;47.984;7.668;2023-04-02T15:02:00;14.60;99.90
2389;DHT22;1205;47.984;7.668;2023-04-02T15:04:56;14.20;99.90
2389;DHT22;1205;47.984;7.668;2023-04-02T15:07:28;14.10;99.90
2389;DHT22;1205;47.984;7.668;2023-04-02T15:10:23;14.20;99.90
2389;DHT22;1205;47.984;7.668;2023-04-02T15:12:52;13.80;99.90
2389;DHT22;1205;47.984;7.668;2023-04-02T15:17:58;13.30;99.90
2389;DHT22;1205;47.984;7.668;2023-04-02T15:20:35;13.10;99.90
2389;DHT22;1205;47.984;7.668;2023-04-02T15:23:33;13.00;99.90
2389;DHT22;1205;47.984;7.668;2023-04-02T15:28:40;12.70;99.90
2389;DHT22;1205;47.984;7.668;2023-04-02T15:31:11;12.50;99.90
2389;DHT22;1205;47.984;7.668;2023-04-02T15:33:43;12.40;99.90
2389;DHT22;1205;47.984;7.668;2023-04-02T15:56:08;11.90;99.90
2389;DHT22;1205;47.984;7.668;2023-04-02T15:58:42;12.00;99.90
2389;DHT22;1205;47.984;7.668;2023-04-02T16:01:20;12.00;99.90
2389;DHT22;1205;47.984;7.668;2023-04-02T16:07:04;12.20;99.90
2389;DHT22;1205;47.984;7.668;2023-04-02T16:12:18;12.10;99.90
2389;DHT22;1205;47.984;7.668;2023-04-02T16:14:47;12.20;99.90
2389;DHT22;1205;47.984;7.668;2023-04-02T16:17:21;12.20;99.90
2389;DHT22;1205;47.984;7.668;2023-04-02T16:19:52;12.20;99.90
2389;DHT22;1205;47.984;7.668;2023-04-02T16:22:23;12.30;99.90
2389;DHT22;1205;47.984;7.668;2023-04-02T16:25:03;12.30;99.90
2389;DHT22;1205;47.984;7.668;2023-04-02T16:27:37;12.30;99.90
2389;DHT22;1205;47.984;7.668;2023-04-02T16:38:58;12.30;99.90
2389;DHT22;1205;47.984;7.668;2023-04-02T16:41:45;12.30;99.90
2389;DHT22;1205;47.984;7.668;2023-04-02T16:46:58;12.10;99.90
2389;DHT22;1205;47.984;7.668;2023-04-02T16:49:40;12.20;99.90
2389;DHT22;1205;47.984;7.668;2023-04-02T16:52:28;12.20;99.90
2389;DHT22;1205;47.984;7.668;2023-04-02T16:57:45;12.20;99.90
2389;DHT22;1205;47.984;7.668;2023-04-02T17:00:36;12.10;99.90
2389;DHT22;1205;47.984;7.668;2023-04-02T17:03:42;12.00;99.90
2389;DHT22;1205;47.984;7.668;2023-04-02T17:08:56;11.80;99.90
2389;DHT22;1205;47.984;7.668;2023-04-02T17:11:47;11.70;99.90
2389;DHT22;1205;47.984;7.668;2023-04-02T17:14:24;12.10;99.90
2389;DHT22;1205;47.984;7.668;2023-04-02T17:16:56;12.10;99.90
2389;DHT22;1205;47.984;7.668;2023-04-02T17:19:25;11.90;99.90
2389;DHT22;1205;47.984;7.668;2023-04-02T17:21:56;11.90;99.90
2389;DHT22;1205;47.984;7.668;2023-04-02T17:24:26;11.80;99.90
2389;DHT22;1205;47.984;7.668;2023-04-02T17:26:58;11.80;99.90
2389;DHT22;1205;47.984;7.668;2023-04-02T17:29:31;12.00;99.90
2389;DHT22;1205;47.984;7.668;2023-04-02T17:31:59;11.90;99.90
2389;DHT22;1205;47.984;7.668;2023-04-02T17:34:26;11.80;99.90
2389;DHT22;1205;47.984;7.668;2023-04-02T17:39:51;11.70;99.90
2389;DHT22;1205;47.984;7.668;2023-04-02T17:42:46;11.70;99.90
2389;DHT22;1205;47.984;7.668;2023-04-02T17:45:23;11.70;99.90
2389;DHT22;1205;47.984;7.668;2023-04-02T17:56:42;11.60;99.90
2389;DHT22;1205;47.984;7.668;2023-04-02T17:59:40;11.60;99.90
2389;DHT22;1205;47.984;7.668;2023-04-02T18:10:37;11.40;99.90
2389;DHT22;1205;47.984;7.668;2023-04-02T18:13:15;11.40;99.90
2389;DHT22;1205;47.984;7.668;2023-04-02T18:33:01;11.00;99.90
2389;DHT22;1205;47.984;7.668;2023-04-02T18:35:42;11.00;99.90
2389;DHT22;1205;47.984;7.668;2023-04-02T18:38:38;11.00;99.90
2389;DHT22;1205;47.984;7.668;2023-04-02T18:46:20;11.00;99.90
2389;DHT22;1205;47.984;7.668;2023-04-02T18:51:20;11.00;99.90
2389;DHT22;1205;47.984;7.668;2023-04-02T18:54:50;10.90;99.90
2389;DHT22;1205;47.984;7.668;2023-04-02T18:56:44;10.90;99.90
2389;DHT22;1205;47.984;7.668;2023-04-02T18:59:36;10.90;99.90
2389;DHT22;1205;47.984;7.668;2023-04-02T19:02:24;10.80;99.90
2389;DHT22;1205;47.984;7.668;2023-04-02T19:05:12;10.80;99.90
2389;DHT22;1205;47.984;7.668;2023-04-02T19:07:41;10.70;99.90
2389;DHT22;1205;47.984;7.668;2023-04-02T19:10:32;10.70;99.90
2389;DHT22;1205;47.984;7.668;2023-04-02T19:12:58;10.70;99.90
2389;DHT22;1205;47.984;7.668;2023-04-02T19:15:40;10.40;99.90
2389;DHT22;1205;47.984;7.668;2023-04-02T19:20:56;10.40;99.90
2389;DHT22;1205;47.984;7.668;2023-04-02T19:23:39;10.40;99.90
2389;DHT22;1205;47.984;7.668;2023-04-02T19:26:19;10.20;99.90
2389;DHT22;1205;47.984;7.668;2023-04-02T19:30:05;10.20;99.90
2389;DHT22;1205;47.984;7.668;2023-04-02T19:32:11;10.10;99.90
2389;DHT22;1205;47.984;7.668;2023-04-02T19:34:57;10.00;99.90
2389;DHT22;1205;47.984;7.668;2023-04-02T19:40:18;10.00;99.90
2389;DHT22;1205;47.984;7.668;2023-04-02T19:42:50;10.00;99.90
2389;DHT22;1205;47.984;7.668;2023-04-02T19:45:42;10.00;99.90
2389;DHT22;1205;47.984;7.668;2023-04-02T19:48:14;10.00;99.90
2389;DHT22;1205;47.984;7.668;2023-04-02T19:50:42;10.00;99.90
2389;DHT22;1205;47.984;7.668;2023-04-02T19:53:07;9.80;99.90
2389;DHT22;1205;47.984;7.668;2023-04-02T19:55:33;9.80;99.90
2389;DHT22;1205;47.984;7.668;2023-04-02T19:57:59;9.90;99.90
2389;DHT22;1205;47.984;7.668;2023-04-02T20:00:24;9.90;99.90
2389;DHT22;1205;47.984;7.668;2023-04-02T20:02:50;9.90;99.90
2389;DHT22;1205;47.984;7.668;2023-04-02T20:05:16;9.80;99.90
2389;DHT22;1205;47.984;7.668;2023-04-02T20:07:41;9.70;99.90
2389;DHT22;1205;47.984;7.668;2023-04-02T20:10:07;9.80;99.90
2389;DHT22;1205;47.984;7.668;2023-04-02T20:12:33;9.70;99.90
2389;DHT22;1205;47.984;7.668;2023-04-02T20:14:59;9.70;99.90
2389;DHT22;1205;47.984;7.668;2023-04-02T20:17:24;9.70;99.90
2389;DHT22;1205;47.984;7.668;2023-04-02T20:19:50;9.70;99.90
2389;DHT22;1205;47.984;7.668;2023-04-02T20:22:16;9.70;99.90
2389;DHT22;1205;47.984;7.668;2023-04-02T20:24:43;9.70;99.90
2389;DHT22;1205;47.984;7.668;2023-04-02T20:27:09;9.60;99.90
2389;DHT22;1205;47.984;7.668;2023-04-02T20:29:34;9.60;99.90
2389;DHT22;1205;47.984;7.668;2023-04-02T20:32:00;9.50;99.90
2389;DHT22;1205;47.984;7.668;2023-04-02T20:34:26;9.50;99.90
2389;DHT22;1205;47.984;7.668;2023-04-02T20:36:51;9.50;99.90
2389;DHT22;1205;47.984;7.668;2023-04-02T20:39:17;9.40;99.90
2389;DHT22;1205;47.984;7.668;2023-04-02T20:41:45;9.50;99.90
2389;DHT22;1205;47.984;7.668;2023-04-02T20:44:11;9.50;99.90
2389;DHT22;1205;47.984;7.668;2023-04-02T20:46:37;9.50;99.90
2389;DHT22;1205;47.984;7.668;2023-04-02T20:49:03;9.40;99.90
2389;DHT22;1205;47.984;7.668;2023-04-02T20:51:29;9.50;99.90
2389;DHT22;1205;47.984;7.668;2023-04-02T20:53:55;9.50;99.90
2389;DHT22;1205;47.984;7.668;2023-04-02T20:56:21;9.40;99.90
2389;DHT22;1205;47.984;7.668;2023-04-02T20:58:48;9.50;99.90